createdAt,value
2023-01-01T00:00:24.583Z,100.00
2023-01-01T00:02:52.409Z,100.00
2023-01-01T00:05:19.185Z,100.00
2023-01-01T00:07:46.478Z,100.00
2023-01-01T00:10:13.938Z,100.00
2023-01-01T00:12:41.320Z,100.00
2023-01-01T00:15:08.592Z,100.00
2023-01-01T00:17:38.886Z,100.00
2023-01-01T00:20:07.438Z,100.00
2023-01-01T00:22:53.890Z,100.00
2023-01-01T00:25:22.149Z,100.00
2023-01-01T00:27:49.837Z,100.00
2023-01-01T00:30:16.713Z,100.00
2023-01-01T00:32:54.730Z,100.00
2023-01-01T00:35:23.407Z,100.00
2023-01-01T00:37:51.249Z,100.00
2023-01-01T00:40:18.644Z,100.00
2023-01-01T00:42:45.815Z,100.00
2023-01-01T00:45:20.619Z,100.00
2023-01-01T00:47:51.278Z,100.00
2023-01-01T00:50:18.955Z,100.00
2023-01-01T00:52:45.922Z,100.00
2023-01-01T00:55:13.251Z,100.00
2023-01-01T00:57:40.142Z,100.00
2023-01-01T01:00:09.017Z,100.00
2023-01-01T01:02:36.430Z,100.00
2023-01-01T01:05:06.649Z,100.00
2023-01-01T01:07:36.012Z,100.00
2023-01-01T01:10:03.812Z,100.00
2023-01-01T01:12:30.685Z,100.00
2023-01-01T01:14:58.332Z,100.00
2023-01-01T01:17:25.747Z,100.00
2023-01-01T01:19:53.333Z,100.00
2023-01-01T01:22:28.029Z,100.00
2023-01-01T01:24:56.785Z,100.00
2023-01-01T01:27:24.094Z,100.00
2023-01-01T01:29:51.984Z,100.00
2023-01-01T01:32:19.619Z,100.00
2023-01-01T01:34:47.048Z,100.00
2023-01-01T01:37:14.749Z,100.00
2023-01-01T01:39:43.776Z,100.00
2023-01-01T01:42:16.979Z,100.00
2023-01-01T01:44:57.151Z,100.00
2023-01-01T01:47:29.536Z,100.00
2023-01-01T01:50:02.674Z,99.56
2023-01-01T01:52:33.074Z,97.94
2023-01-01T01:55:04.535Z,97.78
2023-01-01T01:57:33.299Z,96.94
2023-01-01T02:00:08.636Z,96.00
2023-01-01T02:02:44.732Z,95.57
2023-01-01T02:05:12.342Z,95.30
2023-01-01T02:07:40.398Z,95.95
2023-01-01T02:10:09.835Z,95.34
2023-01-01T02:12:37.421Z,95.27
2023-01-01T02:15:06.063Z,95.01
2023-01-01T02:17:39.644Z,94.74
2023-01-01T02:20:36.921Z,93.58
2023-01-01T02:23:30.660Z,93.23
2023-01-01T02:26:15.527Z,94.11
2023-01-01T02:28:53.287Z,94.06
2023-01-01T02:31:26.597Z,94.77
2023-01-01T02:33:58.347Z,94.51
2023-01-01T02:36:28.765Z,93.90
2023-01-01T02:38:59.218Z,93.72
2023-01-01T02:41:30.499Z,92.96
2023-01-01T02:46:31.994Z,92.42
2023-01-01T02:49:04.687Z,94.10
2023-01-01T02:51:45.572Z,94.24
2023-01-01T02:54:25.795Z,94.47
2023-01-01T02:57:03.514Z,94.73
2023-01-01T02:59:41.078Z,94.46
2023-01-01T03:02:19.766Z,94.22
2023-01-01T03:05:03.499Z,94.12
2023-01-01T03:07:41.298Z,93.78
2023-01-01T03:10:16.052Z,94.91
2023-01-01T03:12:48.269Z,95.97
2023-01-01T03:15:24.134Z,95.90
2023-01-01T03:17:59.025Z,96.83
2023-01-01T03:20:31.454Z,96.22
2023-01-01T03:23:03.918Z,96.41
2023-01-01T03:25:34.461Z,94.82
2023-01-01T03:28:06.652Z,93.75
2023-01-01T03:30:38.715Z,93.32
2023-01-01T03:33:12.906Z,93.55
2023-01-01T03:35:47.044Z,95.29
2023-01-01T03:38:19.846Z,96.03
2023-01-01T03:40:51.766Z,96.75
2023-01-01T03:43:28.044Z,96.55
2023-01-01T03:46:00.851Z,95.74
2023-01-01T03:48:27.756Z,95.18
2023-01-01T03:51:06.436Z,94.98
2023-01-01T03:53:39.733Z,94.48
2023-01-01T03:56:16.402Z,94.85
2023-01-01T03:58:50.096Z,94.85
2023-01-01T04:01:26.376Z,95.00
2023-01-01T04:03:54.906Z,96.75
2023-01-01T04:06:22.267Z,97.52
2023-01-01T04:08:54.242Z,97.93
2023-01-01T04:11:25.419Z,96.94
2023-01-01T04:13:52.706Z,96.71
2023-01-01T04:16:21.784Z,96.60
2023-01-01T04:18:49.073Z,97.53
2023-01-01T04:21:16.608Z,97.12
2023-01-01T04:23:44.119Z,97.53
2023-01-01T04:26:13.459Z,97.76
2023-01-01T04:28:41.185Z,98.51
2023-01-01T04:31:09.242Z,97.62
2023-01-01T04:33:37.914Z,96.96
2023-01-01T04:36:06.203Z,96.18
2023-01-01T04:38:34.323Z,96.22
2023-01-01T04:41:02.308Z,97.05
2023-01-01T04:43:29.819Z,97.25
2023-01-01T04:45:57.222Z,96.99
2023-01-01T04:48:25.168Z,95.31
2023-01-01T04:50:58.000Z,95.51
2023-01-01T04:53:26.324Z,95.32
2023-01-01T04:55:53.592Z,94.30
2023-01-01T04:58:21.069Z,94.29
2023-01-01T05:00:53.459Z,93.50
2023-01-01T05:03:21.154Z,92.43
2023-01-01T05:05:51.327Z,93.02
2023-01-01T05:08:20.461Z,92.33
2023-01-01T05:10:48.072Z,92.09
2023-01-01T05:13:15.489Z,92.51
2023-01-01T05:15:42.771Z,92.61
2023-01-01T05:18:10.773Z,91.98
2023-01-01T05:20:38.038Z,92.30
2023-01-01T05:23:05.358Z,91.90
2023-01-01T05:25:34.206Z,91.00
2023-01-01T05:28:01.637Z,91.38
2023-01-01T05:30:28.933Z,91.86
2023-01-01T05:32:56.255Z,92.66
2023-01-01T05:35:26.527Z,93.41
2023-01-01T05:37:54.535Z,92.74
2023-01-01T05:40:21.914Z,92.92
2023-01-01T05:42:50.639Z,93.85
2023-01-01T05:45:18.159Z,94.02
2023-01-01T05:47:45.614Z,94.59
2023-01-01T05:52:38.730Z,93.96
2023-01-01T05:55:07.163Z,94.12
2023-01-01T05:57:34.067Z,94.11
2023-01-01T06:00:02.821Z,94.14
2023-01-01T06:02:31.689Z,92.91
2023-01-01T06:05:01.575Z,92.29
2023-01-01T06:07:28.712Z,91.63
2023-01-01T06:09:55.993Z,91.83
2023-01-01T06:12:22.773Z,90.65
2023-01-01T06:14:50.120Z,90.79
2023-01-01T06:17:19.139Z,89.86
2023-01-01T06:19:46.427Z,90.07
2023-01-01T06:22:13.693Z,89.58
2023-01-01T06:24:41.256Z,89.82
2023-01-01T06:27:08.929Z,89.30
2023-01-01T06:29:36.248Z,90.14
2023-01-01T06:32:03.913Z,90.08
2023-01-01T06:34:32.724Z,90.39
2023-01-01T06:37:04.703Z,89.90
2023-01-01T06:39:34.515Z,90.48
2023-01-01T06:42:01.778Z,90.50
2023-01-01T06:44:29.040Z,90.31
2023-01-01T06:46:55.737Z,90.85
2023-01-01T06:49:22.922Z,91.00
2023-01-01T06:51:51.707Z,91.34
2023-01-01T06:54:18.637Z,92.49
2023-01-01T06:56:45.855Z,93.05
2023-01-01T06:59:13.773Z,93.28
2023-01-01T07:01:44.376Z,94.70
2023-01-01T07:04:14.067Z,95.99
2023-01-01T07:06:42.599Z,97.64
2023-01-01T07:09:11.859Z,98.91
2023-01-01T07:11:39.109Z,99.78
2023-01-01T07:14:06.685Z,100.00
2023-01-01T07:16:34.260Z,99.27
2023-01-01T07:19:01.416Z,98.39
2023-01-01T07:21:31.644Z,97.91
2023-01-01T07:24:00.491Z,97.53
2023-01-01T07:26:30.663Z,96.38
2023-01-01T07:29:04.608Z,95.20
2023-01-01T07:31:33.907Z,94.58
2023-01-01T07:34:01.549Z,93.72
2023-01-01T07:36:28.993Z,92.89
2023-01-01T07:38:56.002Z,92.65
2023-01-01T07:41:23.368Z,92.06
2023-01-01T07:43:52.176Z,91.37
2023-01-01T07:46:19.441Z,89.82
2023-01-01T07:48:46.922Z,88.34
2023-01-01T07:51:14.267Z,87.87
2023-01-01T07:53:41.672Z,86.83
2023-01-01T07:56:09.516Z,86.52
2023-01-01T07:58:39.981Z,86.68
2023-01-01T08:01:10.470Z,87.20
2023-01-01T08:03:37.401Z,86.62
2023-01-01T08:06:08.429Z,87.30
2023-01-01T08:08:35.912Z,86.54
2023-01-01T08:11:04.068Z,86.29
2023-01-01T08:13:31.864Z,86.88
2023-01-01T08:15:59.270Z,87.40
2023-01-01T08:18:28.522Z,86.39
2023-01-01T08:20:55.887Z,86.98
2023-01-01T08:23:23.837Z,86.95
2023-01-01T08:25:51.040Z,87.06
2023-01-01T08:28:18.816Z,87.54
2023-01-01T08:30:46.469Z,88.26
2023-01-01T08:33:13.991Z,88.55
2023-01-01T08:35:45.581Z,87.83
2023-01-01T08:38:16.610Z,87.55
2023-01-01T08:40:43.896Z,87.24
2023-01-01T08:43:11.308Z,87.53
2023-01-01T08:45:39.304Z,87.33
2023-01-01T08:48:07.127Z,86.93
2023-01-01T08:50:34.463Z,87.30
2023-01-01T08:53:03.177Z,86.86
2023-01-01T08:55:30.609Z,86.84
2023-01-01T08:57:57.779Z,87.53
2023-01-01T09:00:25.132Z,87.64
2023-01-01T09:02:52.588Z,87.06
2023-01-01T09:05:20.048Z,87.01
2023-01-01T09:07:47.738Z,86.14
2023-01-01T09:10:17.628Z,86.37
2023-01-01T09:12:45.340Z,87.68
2023-01-01T09:15:16.031Z,89.12
2023-01-01T09:17:43.525Z,89.75
2023-01-01T09:20:11.083Z,89.90
2023-01-01T09:22:38.443Z,91.02
2023-01-01T09:25:06.345Z,91.98
2023-01-01T09:27:34.979Z,93.08
2023-01-01T09:30:02.763Z,94.33
2023-01-01T09:32:30.324Z,94.63
2023-01-01T09:34:57.515Z,94.82
2023-01-01T09:37:25.206Z,94.88
2023-01-01T09:39:52.586Z,93.59
2023-01-01T09:42:29.438Z,94.22
2023-01-01T09:45:18.819Z,96.51
2023-01-01T09:47:47.850Z,97.97
2023-01-01T09:50:18.953Z,97.37
2023-01-01T09:52:52.922Z,98.32
2023-01-01T09:55:27.014Z,98.98
2023-01-01T09:57:55.925Z,100.00
2023-01-01T10:00:24.817Z,100.00
2023-01-01T10:03:07.304Z,100.00
2023-01-01T10:05:49.529Z,100.00
2023-01-01T10:08:29.343Z,100.00
2023-01-01T10:11:05.573Z,100.00
2023-01-01T10:13:38.326Z,100.00
2023-01-01T10:16:16.002Z,100.00
2023-01-01T10:18:48.617Z,99.81
2023-01-01T10:21:19.571Z,99.22
2023-01-01T10:23:50.075Z,99.69
2023-01-01T10:26:19.411Z,98.33
2023-01-01T10:28:55.185Z,98.79
2023-01-01T10:31:31.830Z,98.95
2023-01-01T10:33:58.987Z,99.15
2023-01-01T10:36:27.147Z,99.49
2023-01-01T10:38:54.394Z,100.00
2023-01-01T10:41:21.796Z,100.00
2023-01-01T10:43:50.097Z,100.00
2023-01-01T10:46:29.444Z,100.00
2023-01-01T10:49:11.192Z,100.00
2023-01-01T10:51:43.944Z,100.00
2023-01-01T10:54:33.048Z,100.00
2023-01-01T10:57:12.830Z,100.00
2023-01-01T10:59:43.096Z,100.00
2023-01-01T11:02:20.558Z,100.00
2023-01-01T11:04:49.862Z,100.00
2023-01-01T11:07:31.063Z,100.00
2023-01-01T11:10:04.197Z,100.00
2023-01-01T11:13:04.307Z,100.00
2023-01-01T11:15:30.901Z,100.00
2023-01-01T11:18:05.950Z,100.00
2023-01-01T11:20:36.781Z,100.00
2023-01-01T11:23:21.144Z,100.00
2023-01-01T11:26:04.661Z,100.00
2023-01-01T11:28:33.424Z,100.00
2023-01-01T11:31:08.069Z,100.00
2023-01-01T11:33:39.319Z,100.00
2023-01-01T11:36:08.397Z,100.00
2023-01-01T11:38:35.948Z,100.00
2023-01-01T11:41:06.362Z,100.00
2023-01-01T11:43:40.115Z,99.41
2023-01-01T11:46:11.088Z,99.17
2023-01-01T11:48:42.858Z,97.46
2023-01-01T11:51:29.916Z,96.26
2023-01-01T11:54:23.122Z,94.51
2023-01-01T11:56:55.076Z,94.35
2023-01-01T11:59:27.966Z,93.29
2023-01-01T12:01:59.541Z,90.62
2023-01-01T12:04:36.198Z,88.05
2023-01-01T12:07:08.034Z,87.17
2023-01-01T12:09:42.558Z,85.63
2023-01-01T12:12:15.975Z,84.94
2023-01-01T12:14:51.853Z,84.45
2023-01-01T12:17:25.008Z,83.82
2023-01-01T12:19:59.682Z,83.44
2023-01-01T12:22:28.500Z,83.21
2023-01-01T12:24:56.960Z,82.53
2023-01-01T12:27:47.763Z,82.27
2023-01-01T12:30:21.592Z,80.50
2023-01-01T12:33:12.947Z,78.05
2023-01-01T12:36:15.432Z,77.48
2023-01-01T12:39:18.019Z,77.61
2023-01-01T12:41:56.918Z,77.25
2023-01-01T12:44:36.872Z,78.58
2023-01-01T12:47:15.847Z,77.44
2023-01-01T12:50:08.182Z,76.42
2023-01-01T12:52:51.387Z,77.14
2023-01-01T12:55:41.547Z,76.29
2023-01-01T12:58:15.105Z,76.46
2023-01-01T13:00:46.358Z,76.31
2023-01-01T13:03:21.552Z,76.04
2023-01-01T13:05:52.661Z,77.10
2023-01-01T13:08:20.078Z,76.81
2023-01-01T13:10:49.037Z,75.87
2023-01-01T13:13:19.031Z,75.09
2023-01-01T13:15:49.235Z,75.39
2023-01-01T13:18:23.298Z,75.79
2023-01-01T13:21:03.897Z,76.28
2023-01-01T13:23:51.758Z,77.50
2023-01-01T13:26:42.981Z,80.25
2023-01-01T13:29:43.378Z,79.84
2023-01-01T13:32:13.944Z,80.20
2023-01-01T13:35:04.757Z,79.76
2023-01-01T13:37:41.853Z,79.00
2023-01-01T13:40:47.504Z,76.52
2023-01-01T13:43:30.474Z,77.32
2023-01-01T13:46:12.359Z,76.85
2023-01-01T13:49:13.197Z,75.52
2023-01-01T13:52:06.259Z,75.06
2023-01-01T13:55:18.415Z,75.28
2023-01-01T13:58:08.047Z,74.65
2023-01-01T14:00:49.634Z,74.04
2023-01-01T14:03:19.358Z,75.46
2023-01-01T14:05:50.346Z,74.42
2023-01-01T14:08:31.703Z,74.68
2023-01-01T14:11:01.932Z,75.02
2023-01-01T14:13:30.740Z,74.78
2023-01-01T14:16:00.206Z,73.93
2023-01-01T14:18:33.964Z,73.84
2023-01-01T14:21:02.213Z,72.64
2023-01-01T14:23:34.714Z,72.51
2023-01-01T14:26:06.500Z,72.17
2023-01-01T14:28:35.559Z,71.50
2023-01-01T14:31:10.771Z,71.38
2023-01-01T14:33:38.864Z,71.84
2023-01-01T14:36:14.714Z,71.91
2023-01-01T14:38:45.877Z,71.41
2023-01-01T14:41:19.572Z,71.44
2023-01-01T14:43:49.675Z,72.26
2023-01-01T14:46:19.679Z,71.99
2023-01-01T14:48:49.501Z,70.81
2023-01-01T14:51:22.280Z,69.99
2023-01-01T14:53:54.083Z,70.59
2023-01-01T14:56:27.036Z,69.89
2023-01-01T14:58:58.470Z,71.16
2023-01-01T15:01:27.216Z,72.30
2023-01-01T15:03:59.246Z,71.51
2023-01-01T15:06:27.112Z,71.43
2023-01-01T15:08:56.255Z,71.38
2023-01-01T15:11:28.766Z,71.60
2023-01-01T15:13:59.595Z,72.03
2023-01-01T15:16:27.156Z,71.92
2023-01-01T15:18:54.320Z,72.31
2023-01-01T15:21:34.654Z,72.74
2023-01-01T15:24:09.913Z,72.53
2023-01-01T15:26:42.360Z,73.21
2023-01-01T15:29:14.819Z,72.98
2023-01-01T15:31:45.183Z,72.43
2023-01-01T15:34:22.249Z,71.80
2023-01-01T15:36:50.521Z,72.04
2023-01-01T15:39:19.622Z,72.15
2023-01-01T15:41:48.130Z,71.05
2023-01-01T15:44:27.808Z,70.78
2023-01-01T15:47:05.532Z,71.86
2023-01-01T15:49:33.061Z,71.55
2023-01-01T15:52:05.315Z,71.72
2023-01-01T15:54:39.190Z,72.93
2023-01-01T15:57:17.862Z,72.93
2023-01-01T15:59:45.762Z,74.15
2023-01-01T16:02:17.490Z,74.10
2023-01-01T16:04:48.740Z,74.21
2023-01-01T16:07:19.746Z,75.05
2023-01-01T16:09:51.985Z,74.18
2023-01-01T16:12:24.546Z,74.92
2023-01-01T16:14:51.703Z,75.74
2023-01-01T16:17:20.697Z,77.56
2023-01-01T16:19:48.843Z,78.94
2023-01-01T16:22:17.595Z,79.77
2023-01-01T16:24:45.162Z,81.41
2023-01-01T16:27:14.503Z,81.76
2023-01-01T16:29:43.378Z,82.24
2023-01-01T16:32:17.342Z,83.17
2023-01-01T16:34:44.942Z,84.12
2023-01-01T16:37:11.716Z,84.79
2023-01-01T16:39:39.243Z,85.46
2023-01-01T16:42:09.981Z,85.93
2023-01-01T16:44:41.599Z,86.32
2023-01-01T16:47:08.773Z,87.05
2023-01-01T16:49:37.431Z,87.44
2023-01-01T16:52:05.086Z,87.97
2023-01-01T16:54:32.303Z,88.59
2023-01-01T16:56:59.147Z,88.96
2023-01-01T16:59:26.701Z,89.11
2023-01-01T17:01:55.715Z,89.77
2023-01-01T17:04:23.153Z,90.20
2023-01-01T17:06:51.417Z,90.87
2023-01-01T17:09:18.477Z,90.58
2023-01-01T17:11:45.763Z,91.19
2023-01-01T17:14:13.528Z,91.41
2023-01-01T17:16:41.103Z,91.37
2023-01-01T17:19:15.103Z,91.46
2023-01-01T17:21:43.841Z,90.94
2023-01-01T17:24:11.881Z,90.94
2023-01-01T17:26:39.313Z,91.08
2023-01-01T17:29:07.140Z,91.34
2023-01-01T17:31:34.613Z,90.36
2023-01-01T17:34:02.326Z,90.13
2023-01-01T17:36:31.763Z,91.12
2023-01-01T17:38:58.505Z,90.85
2023-01-01T17:41:26.207Z,90.67
2023-01-01T17:43:54.082Z,91.02
2023-01-01T17:46:24.081Z,90.70
2023-01-01T17:48:51.761Z,90.41
2023-01-01T17:51:20.091Z,90.02
2023-01-01T17:53:49.523Z,89.57
2023-01-01T17:56:18.621Z,89.09
2023-01-01T17:58:46.875Z,89.47
2023-01-01T18:01:27.892Z,90.46
2023-01-01T18:03:57.403Z,90.32
2023-01-01T18:06:25.297Z,90.73
2023-01-01T18:08:57.553Z,95.70
2023-01-01T18:11:26.450Z,93.93
2023-01-01T18:13:53.727Z,94.95
2023-01-01T18:16:21.639Z,98.27
2023-01-01T18:18:48.830Z,99.80
2023-01-01T18:21:18.707Z,99.02
2023-01-01T18:23:46.561Z,99.03
2023-01-01T18:26:15.022Z,98.83
2023-01-01T18:28:43.027Z,98.67
2023-01-01T18:31:12.745Z,98.53
2023-01-01T18:33:41.121Z,98.82
2023-01-01T18:36:10.855Z,99.03
2023-01-01T18:38:38.394Z,99.36
2023-01-01T18:41:24.021Z,98.59
2023-01-01T18:43:51.860Z,99.30
2023-01-01T18:46:20.194Z,99.93
2023-01-01T18:48:47.968Z,99.96
2023-01-01T18:51:22.348Z,99.55
2023-01-01T18:53:51.547Z,100.00
2023-01-01T18:56:20.405Z,100.00
2023-01-01T18:58:47.828Z,100.00
2023-01-01T19:01:17.903Z,100.00
2023-01-01T19:03:48.456Z,100.00
2023-01-01T19:06:26.912Z,100.00
2023-01-01T19:09:02.865Z,100.00
2023-01-01T19:11:32.932Z,100.00
2023-01-01T19:14:12.625Z,100.00
2023-01-01T19:16:40.141Z,100.00
2023-01-01T19:19:16.670Z,99.94
2023-01-01T19:21:51.041Z,99.53
2023-01-01T19:24:26.863Z,99.51
2023-01-01T19:27:00.266Z,100.00
2023-01-01T19:29:30.756Z,100.00
2023-01-01T19:31:58.791Z,100.00
2023-01-01T19:34:26.377Z,100.00
2023-01-01T19:36:54.233Z,100.00
2023-01-01T19:39:21.369Z,100.00
2023-01-01T19:41:48.571Z,100.00
2023-01-01T19:44:24.530Z,100.00
2023-01-01T19:46:52.406Z,100.00
2023-01-01T19:49:20.140Z,100.00
2023-01-01T19:51:47.455Z,100.00
2023-01-01T19:54:14.957Z,100.00
2023-01-01T19:56:41.732Z,100.00
2023-01-01T19:59:08.481Z,100.00
2023-01-01T20:01:37.212Z,100.00
2023-01-01T20:04:04.737Z,100.00
2023-01-01T20:06:32.388Z,100.00
2023-01-01T20:08:59.882Z,100.00
2023-01-01T20:11:27.607Z,100.00
2023-01-01T20:13:55.334Z,100.00
2023-01-01T20:16:22.105Z,100.00
2023-01-01T20:18:51.333Z,100.00
2023-01-01T20:21:25.662Z,100.00
2023-01-01T20:23:54.226Z,100.00
2023-01-01T20:26:21.098Z,100.00
2023-01-01T20:28:48.414Z,100.00
2023-01-01T20:31:15.267Z,100.00
2023-01-01T20:33:42.464Z,100.00
2023-01-01T20:36:10.661Z,100.00
2023-01-01T20:38:40.338Z,100.00
2023-01-01T20:41:08.122Z,100.00
2023-01-01T20:43:35.551Z,100.00
2023-01-01T20:46:02.923Z,100.00
2023-01-01T20:48:30.106Z,100.00
2023-01-01T20:50:57.370Z,100.00
2023-01-01T20:53:26.174Z,100.00
2023-01-01T20:55:53.723Z,100.00
2023-01-01T20:58:21.198Z,100.00
2023-01-01T21:00:48.569Z,100.00
2023-01-01T21:03:16.410Z,100.00
2023-01-01T21:05:43.790Z,100.00
2023-01-01T21:08:12.139Z,100.00
2023-01-01T21:10:41.242Z,100.00
2023-01-01T21:13:08.434Z,100.00
2023-01-01T21:15:35.961Z,100.00
2023-01-01T21:18:11.227Z,100.00
2023-01-01T21:20:43.597Z,100.00
2023-01-01T21:23:15.639Z,100.00
2023-01-01T21:25:51.704Z,100.00
2023-01-01T21:28:20.136Z,100.00
2023-01-01T21:30:50.637Z,100.00
2023-01-01T21:33:25.908Z,100.00
2023-01-01T21:35:53.408Z,100.00
2023-01-01T21:38:24.995Z,100.00
2023-01-01T21:40:55.765Z,100.00
2023-01-01T21:43:34.516Z,100.00
2023-01-01T21:46:28.622Z,100.00
2023-01-01T21:48:58.756Z,100.00
2023-01-01T21:51:28.191Z,100.00
2023-01-01T21:54:17.165Z,100.00
2023-01-01T21:56:52.308Z,100.00
2023-01-01T21:59:25.024Z,100.00
2023-01-01T22:01:54.518Z,100.00
2023-01-01T22:04:24.634Z,100.00
2023-01-01T22:06:55.150Z,100.00
2023-01-01T22:09:23.824Z,100.00
2023-01-01T22:11:57.967Z,100.00
2023-01-01T22:14:27.852Z,100.00
2023-01-01T22:16:56.133Z,100.00
2023-01-01T22:19:28.139Z,100.00
2023-01-01T22:21:55.707Z,100.00
2023-01-01T22:24:31.483Z,100.00
2023-01-01T22:27:18.233Z,100.00
2023-01-01T22:29:46.649Z,100.00
2023-01-01T22:32:18.890Z,100.00
2023-01-01T22:34:46.337Z,100.00
2023-01-01T22:37:18.946Z,100.00
2023-01-01T22:39:46.427Z,100.00
2023-01-01T22:42:18.183Z,100.00
2023-01-01T22:44:53.975Z,100.00
2023-01-01T22:47:21.669Z,100.00
2023-01-01T22:49:51.187Z,100.00
2023-01-01T22:52:18.807Z,100.00
2023-01-01T22:54:46.062Z,100.00
2023-01-01T22:57:14.081Z,100.00
2023-01-01T22:59:41.534Z,100.00
2023-01-01T23:02:08.926Z,100.00
2023-01-01T23:04:36.287Z,100.00
2023-01-01T23:07:05.145Z,100.00
2023-01-01T23:09:33.175Z,100.00
2023-01-01T23:12:01.290Z,100.00
2023-01-01T23:14:34.346Z,100.00
2023-01-01T23:17:05.767Z,100.00
2023-01-01T23:19:33.197Z,100.00
2023-01-01T23:22:02.008Z,100.00
2023-01-01T23:24:31.239Z,100.00
2023-01-01T23:27:00.803Z,100.00
2023-01-01T23:29:32.140Z,100.00
2023-01-01T23:32:00.194Z,100.00
2023-01-01T23:34:28.320Z,100.00
2023-01-01T23:36:56.318Z,100.00
2023-01-01T23:39:23.500Z,100.00
2023-01-01T23:41:51.680Z,100.00
2023-01-01T23:44:19.115Z,100.00
2023-01-01T23:46:48.156Z,100.00
2023-01-01T23:49:16.214Z,100.00
2023-01-01T23:51:43.561Z,100.00
2023-01-01T23:54:10.884Z,100.00
2023-01-01T23:56:38.364Z,100.00
2023-01-01T23:59:05.668Z,100.00
